<?xml version="1.0" encoding="UTF-8" standalone="no" ?>
<gpx xmlns="http://www.topografix.com/GPX/1/1" xmlns:xsi="http://www.w3.org/2001/XMLSchema-instance" xsi:schemaLocation="http://www.topografix.com/GPX/1/1 http://www.topografix.com/GPX/1/1/gpx.xsd" version="1.1" creator="VisuGPX - https://www.visugpx.com">
  <metadata>
    <name>Le Fief-Sauvin</name>
    <desc><![CDATA[comment ...]]></desc>
  </metadata>
  <trk>
    <name><![CDATA[Le Fief-Sauvin]]></name>
    <cmt><![CDATA[8km]]></cmt>
    <desc><![CDATA[comment ...]]></desc>
    <trkseg>
      <trkpt lat="47.22285" lon="-1.04717">
        <ele>89</ele>
        <time>2019-06-16T07:11:21Z</time>
      </trkpt>
      <trkpt lat="47.22285" lon="-1.04717">
        <ele>89</ele>
        <time>2019-06-16T07:11:22Z</time>
      </trkpt>
      <trkpt lat="47.22286" lon="-1.04722">
        <ele>93</ele>
        <time>2019-06-16T07:11:32Z</time>
      </trkpt>
      <trkpt lat="47.22283" lon="-1.04723">
        <ele>96</ele>
        <time>2019-06-16T07:11:44Z</time>
      </trkpt>
      <trkpt lat="47.22281" lon="-1.04729">
        <ele>97</ele>
        <time>2019-06-16T07:11:56Z</time>
      </trkpt>
      <trkpt lat="47.22276" lon="-1.04742">
        <ele>96</ele>
        <time>2019-06-16T07:12:06Z</time>
      </trkpt>
      <trkpt lat="47.22272" lon="-1.04744">
        <ele>96</ele>
        <time>2019-06-16T07:12:09Z</time>
      </trkpt>
      <trkpt lat="47.22265" lon="-1.04751">
        <ele>96</ele>
        <time>2019-06-16T07:12:16Z</time>
      </trkpt>
      <trkpt lat="47.22235" lon="-1.0476">
        <ele>99</ele>
        <time>2019-06-16T07:12:47Z</time>
      </trkpt>
      <trkpt lat="47.22227" lon="-1.04764">
        <ele>98</ele>
        <time>2019-06-16T07:12:54Z</time>
      </trkpt>
      <trkpt lat="47.22226" lon="-1.04768">
        <ele>97</ele>
        <time>2019-06-16T07:12:57Z</time>
      </trkpt>
      <trkpt lat="47.22225" lon="-1.04772">
        <ele>95</ele>
        <time>2019-06-16T07:13:25Z</time>
      </trkpt>
      <trkpt lat="47.22223" lon="-1.04775">
        <ele>95</ele>
        <time>2019-06-16T07:13:34Z</time>
      </trkpt>
      <trkpt lat="47.22211" lon="-1.04778">
        <ele>96</ele>
        <time>2019-06-16T07:13:44Z</time>
      </trkpt>
      <trkpt lat="47.22198" lon="-1.04785">
        <ele>99</ele>
        <time>2019-06-16T07:13:54Z</time>
      </trkpt>
      <trkpt lat="47.2216" lon="-1.04804">
        <ele>98</ele>
        <time>2019-06-16T07:14:25Z</time>
      </trkpt>
      <trkpt lat="47.22144" lon="-1.04817">
        <ele>99</ele>
        <time>2019-06-16T07:14:40Z</time>
      </trkpt>
      <trkpt lat="47.22139" lon="-1.04819">
        <ele>99</ele>
        <time>2019-06-16T07:14:43Z</time>
      </trkpt>
      <trkpt lat="47.22131" lon="-1.04833">
        <ele>98</ele>
        <time>2019-06-16T07:14:53Z</time>
      </trkpt>
      <trkpt lat="47.22132" lon="-1.04843">
        <ele>97</ele>
        <time>2019-06-16T07:14:58Z</time>
      </trkpt>
      <trkpt lat="47.22131" lon="-1.04866">
        <ele>97</ele>
        <time>2019-06-16T07:15:09Z</time>
      </trkpt>
      <trkpt lat="47.22124" lon="-1.04888">
        <ele>97</ele>
        <time>2019-06-16T07:15:21Z</time>
      </trkpt>
      <trkpt lat="47.2212" lon="-1.04896">
        <ele>97</ele>
        <time>2019-06-16T07:15:26Z</time>
      </trkpt>
      <trkpt lat="47.22086" lon="-1.04934">
        <ele>96</ele>
        <time>2019-06-16T07:15:58Z</time>
      </trkpt>
      <trkpt lat="47.22052" lon="-1.04978">
        <ele>95</ele>
        <time>2019-06-16T07:16:31Z</time>
      </trkpt>
      <trkpt lat="47.22013" lon="-1.0502">
        <ele>91</ele>
        <time>2019-06-16T07:17:07Z</time>
      </trkpt>
      <trkpt lat="47.22006" lon="-1.05027">
        <ele>91</ele>
        <time>2019-06-16T07:17:13Z</time>
      </trkpt>
      <trkpt lat="47.22002" lon="-1.05027">
        <ele>91</ele>
        <time>2019-06-16T07:17:16Z</time>
      </trkpt>
      <trkpt lat="47.22" lon="-1.05024">
        <ele>90</ele>
        <time>2019-06-16T07:17:18Z</time>
      </trkpt>
      <trkpt lat="47.2199" lon="-1.04993">
        <ele>89</ele>
        <time>2019-06-16T07:17:33Z</time>
      </trkpt>
      <trkpt lat="47.21974" lon="-1.04935">
        <ele>88</ele>
        <time>2019-06-16T07:18:03Z</time>
      </trkpt>
      <trkpt lat="47.2196" lon="-1.04881">
        <ele>87</ele>
        <time>2019-06-16T07:18:34Z</time>
      </trkpt>
      <trkpt lat="47.21949" lon="-1.0484">
        <ele>83</ele>
        <time>2019-06-16T07:18:59Z</time>
      </trkpt>
      <trkpt lat="47.21941" lon="-1.04839">
        <ele>82</ele>
        <time>2019-06-16T07:19:07Z</time>
      </trkpt>
      <trkpt lat="47.21936" lon="-1.04846">
        <ele>82</ele>
        <time>2019-06-16T07:19:13Z</time>
      </trkpt>
      <trkpt lat="47.21934" lon="-1.04852">
        <ele>82</ele>
        <time>2019-06-16T07:19:17Z</time>
      </trkpt>
      <trkpt lat="47.21929" lon="-1.04874">
        <ele>83</ele>
        <time>2019-06-16T07:19:30Z</time>
      </trkpt>
      <trkpt lat="47.21926" lon="-1.0488">
        <ele>83</ele>
        <time>2019-06-16T07:19:34Z</time>
      </trkpt>
      <trkpt lat="47.21923" lon="-1.04883">
        <ele>84</ele>
        <time>2019-06-16T07:19:37Z</time>
      </trkpt>
      <trkpt lat="47.2192" lon="-1.04885">
        <ele>84</ele>
        <time>2019-06-16T07:19:40Z</time>
      </trkpt>
      <trkpt lat="47.21882" lon="-1.04908">
        <ele>81</ele>
        <time>2019-06-16T07:20:11Z</time>
      </trkpt>
      <trkpt lat="47.21876" lon="-1.04911">
        <ele>82</ele>
        <time>2019-06-16T07:20:15Z</time>
      </trkpt>
      <trkpt lat="47.2187" lon="-1.04916">
        <ele>84</ele>
        <time>2019-06-16T07:20:20Z</time>
      </trkpt>
      <trkpt lat="47.21831" lon="-1.04941">
        <ele>89</ele>
        <time>2019-06-16T07:20:52Z</time>
      </trkpt>
      <trkpt lat="47.21802" lon="-1.0496">
        <ele>90</ele>
        <time>2019-06-16T07:21:16Z</time>
      </trkpt>
      <trkpt lat="47.21795" lon="-1.04963">
        <ele>90</ele>
        <time>2019-06-16T07:21:21Z</time>
      </trkpt>
      <trkpt lat="47.21793" lon="-1.04966">
        <ele>90</ele>
        <time>2019-06-16T07:21:23Z</time>
      </trkpt>
      <trkpt lat="47.21787" lon="-1.04971">
        <ele>90</ele>
        <time>2019-06-16T07:21:28Z</time>
      </trkpt>
      <trkpt lat="47.21781" lon="-1.04973">
        <ele>91</ele>
        <time>2019-06-16T07:21:32Z</time>
      </trkpt>
      <trkpt lat="47.21779" lon="-1.04975">
        <ele>91</ele>
        <time>2019-06-16T07:21:34Z</time>
      </trkpt>
      <trkpt lat="47.21777" lon="-1.04979">
        <ele>92</ele>
        <time>2019-06-16T07:21:37Z</time>
      </trkpt>
      <trkpt lat="47.21783" lon="-1.05037">
        <ele>95</ele>
        <time>2019-06-16T07:22:08Z</time>
      </trkpt>
      <trkpt lat="47.21783" lon="-1.05042">
        <ele>95</ele>
        <time>2019-06-16T07:22:11Z</time>
      </trkpt>
      <trkpt lat="47.21783" lon="-1.05055">
        <ele>94</ele>
        <time>2019-06-16T07:22:23Z</time>
      </trkpt>
      <trkpt lat="47.21781" lon="-1.05088">
        <ele>94</ele>
        <time>2019-06-16T07:22:40Z</time>
      </trkpt>
      <trkpt lat="47.21775" lon="-1.05106">
        <ele>95</ele>
        <time>2019-06-16T07:22:49Z</time>
      </trkpt>
      <trkpt lat="47.21752" lon="-1.05157">
        <ele>97</ele>
        <time>2019-06-16T07:23:19Z</time>
      </trkpt>
      <trkpt lat="47.21741" lon="-1.05175">
        <ele>97</ele>
        <time>2019-06-16T07:23:31Z</time>
      </trkpt>
      <trkpt lat="47.21724" lon="-1.05208">
        <ele>102</ele>
        <time>2019-06-16T07:23:49Z</time>
      </trkpt>
      <trkpt lat="47.21711" lon="-1.05237">
        <ele>104</ele>
        <time>2019-06-16T07:24:07Z</time>
      </trkpt>
      <trkpt lat="47.21709" lon="-1.0524">
        <ele>104</ele>
        <time>2019-06-16T07:24:09Z</time>
      </trkpt>
      <trkpt lat="47.21699" lon="-1.05272">
        <ele>101</ele>
        <time>2019-06-16T07:24:29Z</time>
      </trkpt>
      <trkpt lat="47.2168" lon="-1.05319">
        <ele>95</ele>
        <time>2019-06-16T07:24:59Z</time>
      </trkpt>
      <trkpt lat="47.21656" lon="-1.05372">
        <ele>94</ele>
        <time>2019-06-16T07:25:30Z</time>
      </trkpt>
      <trkpt lat="47.21628" lon="-1.05419">
        <ele>97</ele>
        <time>2019-06-16T07:26:03Z</time>
      </trkpt>
      <trkpt lat="47.21611" lon="-1.05452">
        <ele>98</ele>
        <time>2019-06-16T07:26:24Z</time>
      </trkpt>
      <trkpt lat="47.21608" lon="-1.05457">
        <ele>99</ele>
        <time>2019-06-16T07:26:28Z</time>
      </trkpt>
      <trkpt lat="47.216" lon="-1.05471">
        <ele>99</ele>
        <time>2019-06-16T07:26:39Z</time>
      </trkpt>
      <trkpt lat="47.21597" lon="-1.05478">
        <ele>99</ele>
        <time>2019-06-16T07:26:43Z</time>
      </trkpt>
      <trkpt lat="47.21594" lon="-1.05492">
        <ele>98</ele>
        <time>2019-06-16T07:26:50Z</time>
      </trkpt>
      <trkpt lat="47.21585" lon="-1.05507">
        <ele>96</ele>
        <time>2019-06-16T07:27:03Z</time>
      </trkpt>
      <trkpt lat="47.21581" lon="-1.05511">
        <ele>97</ele>
        <time>2019-06-16T07:27:07Z</time>
      </trkpt>
      <trkpt lat="47.2156" lon="-1.05555">
        <ele>97</ele>
        <time>2019-06-16T07:27:38Z</time>
      </trkpt>
      <trkpt lat="47.21553" lon="-1.05569">
        <ele>98</ele>
        <time>2019-06-16T07:27:46Z</time>
      </trkpt>
      <trkpt lat="47.2155" lon="-1.05576">
        <ele>98</ele>
        <time>2019-06-16T07:27:57Z</time>
      </trkpt>
      <trkpt lat="47.21529" lon="-1.05643">
        <ele>101</ele>
        <time>2019-06-16T07:28:29Z</time>
      </trkpt>
      <trkpt lat="47.21521" lon="-1.05668">
        <ele>102</ele>
        <time>2019-06-16T07:28:42Z</time>
      </trkpt>
      <trkpt lat="47.21518" lon="-1.05673">
        <ele>101</ele>
        <time>2019-06-16T07:28:47Z</time>
      </trkpt>
      <trkpt lat="47.21498" lon="-1.05736">
        <ele>102</ele>
        <time>2019-06-16T07:29:17Z</time>
      </trkpt>
      <trkpt lat="47.21496" lon="-1.05739">
        <ele>103</ele>
        <time>2019-06-16T07:29:19Z</time>
      </trkpt>
      <trkpt lat="47.21466" lon="-1.0571">
        <ele>99</ele>
        <time>2019-06-16T07:29:47Z</time>
      </trkpt>
      <trkpt lat="47.21454" lon="-1.05701">
        <ele>99</ele>
        <time>2019-06-16T07:29:57Z</time>
      </trkpt>
      <trkpt lat="47.21431" lon="-1.05676">
        <ele>97</ele>
        <time>2019-06-16T07:30:21Z</time>
      </trkpt>
      <trkpt lat="47.21406" lon="-1.05637">
        <ele>95</ele>
        <time>2019-06-16T07:30:46Z</time>
      </trkpt>
      <trkpt lat="47.21402" lon="-1.05634">
        <ele>95</ele>
        <time>2019-06-16T07:30:49Z</time>
      </trkpt>
      <trkpt lat="47.21388" lon="-1.05611">
        <ele>96</ele>
        <time>2019-06-16T07:31:06Z</time>
      </trkpt>
      <trkpt lat="47.21367" lon="-1.05583">
        <ele>96</ele>
        <time>2019-06-16T07:31:26Z</time>
      </trkpt>
      <trkpt lat="47.2136" lon="-1.05572">
        <ele>97</ele>
        <time>2019-06-16T07:31:33Z</time>
      </trkpt>
      <trkpt lat="47.2133" lon="-1.05538">
        <ele>94</ele>
        <time>2019-06-16T07:32:04Z</time>
      </trkpt>
      <trkpt lat="47.21327" lon="-1.05534">
        <ele>95</ele>
        <time>2019-06-16T07:32:07Z</time>
      </trkpt>
      <trkpt lat="47.2131" lon="-1.05522">
        <ele>93</ele>
        <time>2019-06-16T07:32:22Z</time>
      </trkpt>
      <trkpt lat="47.21299" lon="-1.05514">
        <ele>94</ele>
        <time>2019-06-16T07:32:31Z</time>
      </trkpt>
      <trkpt lat="47.21296" lon="-1.05513">
        <ele>93</ele>
        <time>2019-06-16T07:32:33Z</time>
      </trkpt>
      <trkpt lat="47.21293" lon="-1.05511">
        <ele>93</ele>
        <time>2019-06-16T07:32:36Z</time>
      </trkpt>
      <trkpt lat="47.21289" lon="-1.05508">
        <ele>93</ele>
        <time>2019-06-16T07:32:40Z</time>
      </trkpt>
      <trkpt lat="47.21285" lon="-1.05508">
        <ele>92</ele>
        <time>2019-06-16T07:32:45Z</time>
      </trkpt>
      <trkpt lat="47.21282" lon="-1.05506">
        <ele>93</ele>
        <time>2019-06-16T07:32:50Z</time>
      </trkpt>
      <trkpt lat="47.2128" lon="-1.05504">
        <ele>93</ele>
        <time>2019-06-16T07:32:54Z</time>
      </trkpt>
      <trkpt lat="47.21282" lon="-1.05512">
        <ele>93</ele>
        <time>2019-06-16T07:33:00Z</time>
      </trkpt>
      <trkpt lat="47.21287" lon="-1.05514">
        <ele>90</ele>
        <time>2019-06-16T07:33:31Z</time>
      </trkpt>
      <trkpt lat="47.21307" lon="-1.05526">
        <ele>87</ele>
        <time>2019-06-16T07:33:50Z</time>
      </trkpt>
      <trkpt lat="47.21306" lon="-1.05536">
        <ele>85</ele>
        <time>2019-06-16T07:33:59Z</time>
      </trkpt>
      <trkpt lat="47.21323" lon="-1.05546">
        <ele>87</ele>
        <time>2019-06-16T07:34:10Z</time>
      </trkpt>
      <trkpt lat="47.2135" lon="-1.05573">
        <ele>94</ele>
        <time>2019-06-16T07:34:31Z</time>
      </trkpt>
      <trkpt lat="47.21361" lon="-1.0559">
        <ele>98</ele>
        <time>2019-06-16T07:34:42Z</time>
      </trkpt>
      <trkpt lat="47.21367" lon="-1.05594">
        <ele>99</ele>
        <time>2019-06-16T07:34:46Z</time>
      </trkpt>
      <trkpt lat="47.21371" lon="-1.05599">
        <ele>99</ele>
        <time>2019-06-16T07:34:49Z</time>
      </trkpt>
      <trkpt lat="47.2139" lon="-1.05619">
        <ele>101</ele>
        <time>2019-06-16T07:35:06Z</time>
      </trkpt>
      <trkpt lat="47.21408" lon="-1.0564">
        <ele>105</ele>
        <time>2019-06-16T07:35:27Z</time>
      </trkpt>
      <trkpt lat="47.21426" lon="-1.05659">
        <ele>108</ele>
        <time>2019-06-16T07:35:40Z</time>
      </trkpt>
      <trkpt lat="47.21427" lon="-1.05665">
        <ele>107</ele>
        <time>2019-06-16T07:35:45Z</time>
      </trkpt>
      <trkpt lat="47.21431" lon="-1.0567">
        <ele>106</ele>
        <time>2019-06-16T07:35:48Z</time>
      </trkpt>
      <trkpt lat="47.21441" lon="-1.05679">
        <ele>104</ele>
        <time>2019-06-16T07:35:59Z</time>
      </trkpt>
      <trkpt lat="47.21457" lon="-1.05695">
        <ele>100</ele>
        <time>2019-06-16T07:36:13Z</time>
      </trkpt>
      <trkpt lat="47.21464" lon="-1.05704">
        <ele>101</ele>
        <time>2019-06-16T07:36:19Z</time>
      </trkpt>
      <trkpt lat="47.21472" lon="-1.05712">
        <ele>102</ele>
        <time>2019-06-16T07:36:25Z</time>
      </trkpt>
      <trkpt lat="47.21472" lon="-1.05719">
        <ele>100</ele>
        <time>2019-06-16T07:36:30Z</time>
      </trkpt>
      <trkpt lat="47.21471" lon="-1.05726">
        <ele>98</ele>
        <time>2019-06-16T07:36:33Z</time>
      </trkpt>
      <trkpt lat="47.21471" lon="-1.05733">
        <ele>96</ele>
        <time>2019-06-16T07:36:36Z</time>
      </trkpt>
      <trkpt lat="47.21476" lon="-1.05745">
        <ele>94</ele>
        <time>2019-06-16T07:36:41Z</time>
      </trkpt>
      <trkpt lat="47.21476" lon="-1.0575">
        <ele>94</ele>
        <time>2019-06-16T07:36:44Z</time>
      </trkpt>
      <trkpt lat="47.21464" lon="-1.05803">
        <ele>93</ele>
        <time>2019-06-16T07:37:18Z</time>
      </trkpt>
      <trkpt lat="47.21442" lon="-1.05826">
        <ele>93</ele>
        <time>2019-06-16T07:37:38Z</time>
      </trkpt>
      <trkpt lat="47.21417" lon="-1.05838">
        <ele>95</ele>
        <time>2019-06-16T07:37:58Z</time>
      </trkpt>
      <trkpt lat="47.21415" lon="-1.05842">
        <ele>95</ele>
        <time>2019-06-16T07:38:02Z</time>
      </trkpt>
      <trkpt lat="47.21381" lon="-1.05856">
        <ele>100</ele>
        <time>2019-06-16T07:38:26Z</time>
      </trkpt>
      <trkpt lat="47.2134" lon="-1.05885">
        <ele>102</ele>
        <time>2019-06-16T07:38:58Z</time>
      </trkpt>
      <trkpt lat="47.2133" lon="-1.05891">
        <ele>100</ele>
        <time>2019-06-16T07:39:08Z</time>
      </trkpt>
      <trkpt lat="47.21293" lon="-1.0591">
        <ele>99</ele>
        <time>2019-06-16T07:39:38Z</time>
      </trkpt>
      <trkpt lat="47.21289" lon="-1.05911">
        <ele>100</ele>
        <time>2019-06-16T07:39:41Z</time>
      </trkpt>
      <trkpt lat="47.21285" lon="-1.05911">
        <ele>100</ele>
        <time>2019-06-16T07:39:44Z</time>
      </trkpt>
      <trkpt lat="47.21282" lon="-1.05908">
        <ele>100</ele>
        <time>2019-06-16T07:39:47Z</time>
      </trkpt>
      <trkpt lat="47.21279" lon="-1.05848">
        <ele>99</ele>
        <time>2019-06-16T07:40:18Z</time>
      </trkpt>
      <trkpt lat="47.21278" lon="-1.05793">
        <ele>98</ele>
        <time>2019-06-16T07:40:48Z</time>
      </trkpt>
      <trkpt lat="47.21276" lon="-1.05733">
        <ele>98</ele>
        <time>2019-06-16T07:41:18Z</time>
      </trkpt>
      <trkpt lat="47.21278" lon="-1.05673">
        <ele>98</ele>
        <time>2019-06-16T07:41:48Z</time>
      </trkpt>
      <trkpt lat="47.21278" lon="-1.05645">
        <ele>98</ele>
        <time>2019-06-16T07:42:02Z</time>
      </trkpt>
      <trkpt lat="47.21283" lon="-1.05606">
        <ele>103</ele>
        <time>2019-06-16T07:42:23Z</time>
      </trkpt>
      <trkpt lat="47.21281" lon="-1.05601">
        <ele>103</ele>
        <time>2019-06-16T07:42:26Z</time>
      </trkpt>
      <trkpt lat="47.21279" lon="-1.0554">
        <ele>99</ele>
        <time>2019-06-16T07:42:58Z</time>
      </trkpt>
      <trkpt lat="47.21279" lon="-1.05535">
        <ele>99</ele>
        <time>2019-06-16T07:43:01Z</time>
      </trkpt>
      <trkpt lat="47.21278" lon="-1.05517">
        <ele>98</ele>
        <time>2019-06-16T07:43:11Z</time>
      </trkpt>
      <trkpt lat="47.21278" lon="-1.05511">
        <ele>97</ele>
        <time>2019-06-16T07:43:14Z</time>
      </trkpt>
      <trkpt lat="47.2128" lon="-1.0551">
        <ele>97</ele>
        <time>2019-06-16T07:43:24Z</time>
      </trkpt>
      <trkpt lat="47.21273" lon="-1.05487">
        <ele>95</ele>
        <time>2019-06-16T07:43:42Z</time>
      </trkpt>
      <trkpt lat="47.2125" lon="-1.05439">
        <ele>98</ele>
        <time>2019-06-16T07:44:15Z</time>
      </trkpt>
      <trkpt lat="47.21217" lon="-1.05375">
        <ele>97</ele>
        <time>2019-06-16T07:44:55Z</time>
      </trkpt>
      <trkpt lat="47.21192" lon="-1.05323">
        <ele>96</ele>
        <time>2019-06-16T07:45:25Z</time>
      </trkpt>
      <trkpt lat="47.21169" lon="-1.05284">
        <ele>97</ele>
        <time>2019-06-16T07:45:55Z</time>
      </trkpt>
      <trkpt lat="47.21142" lon="-1.05229">
        <ele>96</ele>
        <time>2019-06-16T07:46:28Z</time>
      </trkpt>
      <trkpt lat="47.21137" lon="-1.05217">
        <ele>96</ele>
        <time>2019-06-16T07:46:35Z</time>
      </trkpt>
      <trkpt lat="47.21134" lon="-1.05213">
        <ele>96</ele>
        <time>2019-06-16T07:46:41Z</time>
      </trkpt>
      <trkpt lat="47.21135" lon="-1.05207">
        <ele>96</ele>
        <time>2019-06-16T07:46:45Z</time>
      </trkpt>
      <trkpt lat="47.21138" lon="-1.05204">
        <ele>96</ele>
        <time>2019-06-16T07:46:48Z</time>
      </trkpt>
      <trkpt lat="47.21171" lon="-1.0517">
        <ele>94</ele>
        <time>2019-06-16T07:47:20Z</time>
      </trkpt>
      <trkpt lat="47.21195" lon="-1.05147">
        <ele>94</ele>
        <time>2019-06-16T07:47:41Z</time>
      </trkpt>
      <trkpt lat="47.21218" lon="-1.0513">
        <ele>92</ele>
        <time>2019-06-16T07:48:05Z</time>
      </trkpt>
      <trkpt lat="47.21224" lon="-1.05123">
        <ele>91</ele>
        <time>2019-06-16T07:48:11Z</time>
      </trkpt>
      <trkpt lat="47.21226" lon="-1.05119">
        <ele>90</ele>
        <time>2019-06-16T07:48:14Z</time>
      </trkpt>
      <trkpt lat="47.21233" lon="-1.0511">
        <ele>87</ele>
        <time>2019-06-16T07:48:23Z</time>
      </trkpt>
      <trkpt lat="47.21237" lon="-1.05105">
        <ele>87</ele>
        <time>2019-06-16T07:48:27Z</time>
      </trkpt>
      <trkpt lat="47.21249" lon="-1.05092">
        <ele>87</ele>
        <time>2019-06-16T07:48:38Z</time>
      </trkpt>
      <trkpt lat="47.21272" lon="-1.05056">
        <ele>85</ele>
        <time>2019-06-16T07:49:04Z</time>
      </trkpt>
      <trkpt lat="47.21297" lon="-1.05009">
        <ele>85</ele>
        <time>2019-06-16T07:49:37Z</time>
      </trkpt>
      <trkpt lat="47.213" lon="-1.04995">
        <ele>86</ele>
        <time>2019-06-16T07:49:44Z</time>
      </trkpt>
      <trkpt lat="47.21304" lon="-1.04992">
        <ele>86</ele>
        <time>2019-06-16T07:49:49Z</time>
      </trkpt>
      <trkpt lat="47.21308" lon="-1.04989">
        <ele>86</ele>
        <time>2019-06-16T07:49:59Z</time>
      </trkpt>
      <trkpt lat="47.21316" lon="-1.04975">
        <ele>86</ele>
        <time>2019-06-16T07:50:07Z</time>
      </trkpt>
      <trkpt lat="47.21328" lon="-1.04962">
        <ele>85</ele>
        <time>2019-06-16T07:50:19Z</time>
      </trkpt>
      <trkpt lat="47.21336" lon="-1.04951">
        <ele>82</ele>
        <time>2019-06-16T07:50:31Z</time>
      </trkpt>
      <trkpt lat="47.21343" lon="-1.04943">
        <ele>81</ele>
        <time>2019-06-16T07:50:38Z</time>
      </trkpt>
      <trkpt lat="47.21345" lon="-1.04939">
        <ele>81</ele>
        <time>2019-06-16T07:50:41Z</time>
      </trkpt>
      <trkpt lat="47.21355" lon="-1.04932">
        <ele>81</ele>
        <time>2019-06-16T07:50:49Z</time>
      </trkpt>
      <trkpt lat="47.21358" lon="-1.04928">
        <ele>81</ele>
        <time>2019-06-16T07:50:53Z</time>
      </trkpt>
      <trkpt lat="47.21401" lon="-1.04896">
        <ele>82</ele>
        <time>2019-06-16T07:51:29Z</time>
      </trkpt>
      <trkpt lat="47.21418" lon="-1.04886">
        <ele>81</ele>
        <time>2019-06-16T07:51:42Z</time>
      </trkpt>
      <trkpt lat="47.21424" lon="-1.04882">
        <ele>80</ele>
        <time>2019-06-16T07:51:49Z</time>
      </trkpt>
      <trkpt lat="47.21429" lon="-1.04879">
        <ele>79</ele>
        <time>2019-06-16T07:51:58Z</time>
      </trkpt>
      <trkpt lat="47.21446" lon="-1.04883">
        <ele>76</ele>
        <time>2019-06-16T07:52:12Z</time>
      </trkpt>
      <trkpt lat="47.21446" lon="-1.0489">
        <ele>77</ele>
        <time>2019-06-16T07:52:18Z</time>
      </trkpt>
      <trkpt lat="47.21443" lon="-1.049">
        <ele>79</ele>
        <time>2019-06-16T07:52:28Z</time>
      </trkpt>
      <trkpt lat="47.21447" lon="-1.04894">
        <ele>79</ele>
        <time>2019-06-16T07:53:51Z</time>
      </trkpt>
      <trkpt lat="47.21451" lon="-1.04892">
        <ele>79</ele>
        <time>2019-06-16T07:53:56Z</time>
      </trkpt>
      <trkpt lat="47.21456" lon="-1.04895">
        <ele>79</ele>
        <time>2019-06-16T07:54:03Z</time>
      </trkpt>
      <trkpt lat="47.21469" lon="-1.04915">
        <ele>81</ele>
        <time>2019-06-16T07:54:28Z</time>
      </trkpt>
      <trkpt lat="47.21472" lon="-1.04917">
        <ele>82</ele>
        <time>2019-06-16T07:54:34Z</time>
      </trkpt>
      <trkpt lat="47.21476" lon="-1.04916">
        <ele>82</ele>
        <time>2019-06-16T07:54:38Z</time>
      </trkpt>
      <trkpt lat="47.21523" lon="-1.049">
        <ele>86</ele>
        <time>2019-06-16T07:55:23Z</time>
      </trkpt>
      <trkpt lat="47.21533" lon="-1.04897">
        <ele>87</ele>
        <time>2019-06-16T07:55:30Z</time>
      </trkpt>
      <trkpt lat="47.21541" lon="-1.04888">
        <ele>88</ele>
        <time>2019-06-16T07:55:38Z</time>
      </trkpt>
      <trkpt lat="47.21541" lon="-1.04872">
        <ele>89</ele>
        <time>2019-06-16T07:55:47Z</time>
      </trkpt>
      <trkpt lat="47.21539" lon="-1.04862">
        <ele>90</ele>
        <time>2019-06-16T07:55:53Z</time>
      </trkpt>
      <trkpt lat="47.21536" lon="-1.04848">
        <ele>91</ele>
        <time>2019-06-16T07:56:01Z</time>
      </trkpt>
      <trkpt lat="47.21536" lon="-1.04842">
        <ele>91</ele>
        <time>2019-06-16T07:56:04Z</time>
      </trkpt>
      <trkpt lat="47.21537" lon="-1.04837">
        <ele>90</ele>
        <time>2019-06-16T07:56:07Z</time>
      </trkpt>
      <trkpt lat="47.21539" lon="-1.04832">
        <ele>90</ele>
        <time>2019-06-16T07:56:10Z</time>
      </trkpt>
      <trkpt lat="47.21574" lon="-1.04823">
        <ele>87</ele>
        <time>2019-06-16T07:56:41Z</time>
      </trkpt>
      <trkpt lat="47.21601" lon="-1.04813">
        <ele>87</ele>
        <time>2019-06-16T07:57:03Z</time>
      </trkpt>
      <trkpt lat="47.21604" lon="-1.04811">
        <ele>87</ele>
        <time>2019-06-16T07:57:06Z</time>
      </trkpt>
      <trkpt lat="47.21621" lon="-1.04805">
        <ele>86</ele>
        <time>2019-06-16T07:57:23Z</time>
      </trkpt>
      <trkpt lat="47.21624" lon="-1.04803">
        <ele>85</ele>
        <time>2019-06-16T07:57:26Z</time>
      </trkpt>
      <trkpt lat="47.21668" lon="-1.04781">
        <ele>86</ele>
        <time>2019-06-16T07:58:00Z</time>
      </trkpt>
      <trkpt lat="47.21704" lon="-1.04768">
        <ele>86</ele>
        <time>2019-06-16T07:58:29Z</time>
      </trkpt>
      <trkpt lat="47.21714" lon="-1.04764">
        <ele>86</ele>
        <time>2019-06-16T07:58:40Z</time>
      </trkpt>
      <trkpt lat="47.21732" lon="-1.04754">
        <ele>86</ele>
        <time>2019-06-16T07:58:57Z</time>
      </trkpt>
      <trkpt lat="47.21732" lon="-1.04748">
        <ele>86</ele>
        <time>2019-06-16T07:59:04Z</time>
      </trkpt>
      <trkpt lat="47.2173" lon="-1.04744">
        <ele>85</ele>
        <time>2019-06-16T07:59:08Z</time>
      </trkpt>
      <trkpt lat="47.21736" lon="-1.0475">
        <ele>85</ele>
        <time>2019-06-16T07:59:19Z</time>
      </trkpt>
      <trkpt lat="47.21739" lon="-1.04747">
        <ele>85</ele>
        <time>2019-06-16T07:59:23Z</time>
      </trkpt>
      <trkpt lat="47.2174" lon="-1.04743">
        <ele>84</ele>
        <time>2019-06-16T07:59:26Z</time>
      </trkpt>
      <trkpt lat="47.21727" lon="-1.0468">
        <ele>81</ele>
        <time>2019-06-16T07:59:59Z</time>
      </trkpt>
      <trkpt lat="47.21714" lon="-1.04618">
        <ele>80</ele>
        <time>2019-06-16T08:00:33Z</time>
      </trkpt>
      <trkpt lat="47.21698" lon="-1.04569">
        <ele>77</ele>
        <time>2019-06-16T08:01:05Z</time>
      </trkpt>
      <trkpt lat="47.21693" lon="-1.04556">
        <ele>75</ele>
        <time>2019-06-16T08:01:14Z</time>
      </trkpt>
      <trkpt lat="47.21693" lon="-1.0455">
        <ele>76</ele>
        <time>2019-06-16T08:01:17Z</time>
      </trkpt>
      <trkpt lat="47.217" lon="-1.04549">
        <ele>75</ele>
        <time>2019-06-16T08:01:26Z</time>
      </trkpt>
      <trkpt lat="47.21738" lon="-1.04545">
        <ele>72</ele>
        <time>2019-06-16T08:01:56Z</time>
      </trkpt>
      <trkpt lat="47.21752" lon="-1.04542">
        <ele>71</ele>
        <time>2019-06-16T08:02:18Z</time>
      </trkpt>
      <trkpt lat="47.21763" lon="-1.04538">
        <ele>69</ele>
        <time>2019-06-16T08:02:27Z</time>
      </trkpt>
      <trkpt lat="47.21785" lon="-1.04531">
        <ele>69</ele>
        <time>2019-06-16T08:02:38Z</time>
      </trkpt>
      <trkpt lat="47.21795" lon="-1.04528">
        <ele>71</ele>
        <time>2019-06-16T08:02:44Z</time>
      </trkpt>
      <trkpt lat="47.21798" lon="-1.04509">
        <ele>73</ele>
        <time>2019-06-16T08:02:58Z</time>
      </trkpt>
      <trkpt lat="47.21762" lon="-1.04468">
        <ele>78</ele>
        <time>2019-06-16T08:03:34Z</time>
      </trkpt>
      <trkpt lat="47.21756" lon="-1.04458">
        <ele>77</ele>
        <time>2019-06-16T08:03:40Z</time>
      </trkpt>
      <trkpt lat="47.2173" lon="-1.04434">
        <ele>79</ele>
        <time>2019-06-16T08:04:04Z</time>
      </trkpt>
      <trkpt lat="47.21708" lon="-1.0442">
        <ele>76</ele>
        <time>2019-06-16T08:04:23Z</time>
      </trkpt>
      <trkpt lat="47.21688" lon="-1.04403">
        <ele>73</ele>
        <time>2019-06-16T08:04:40Z</time>
      </trkpt>
      <trkpt lat="47.21685" lon="-1.04401">
        <ele>73</ele>
        <time>2019-06-16T08:04:44Z</time>
      </trkpt>
      <trkpt lat="47.21681" lon="-1.04397">
        <ele>74</ele>
        <time>2019-06-16T08:04:48Z</time>
      </trkpt>
      <trkpt lat="47.21675" lon="-1.04389">
        <ele>75</ele>
        <time>2019-06-16T08:04:54Z</time>
      </trkpt>
      <trkpt lat="47.21668" lon="-1.04381">
        <ele>75</ele>
        <time>2019-06-16T08:05:01Z</time>
      </trkpt>
      <trkpt lat="47.21661" lon="-1.04375">
        <ele>76</ele>
        <time>2019-06-16T08:05:07Z</time>
      </trkpt>
      <trkpt lat="47.21652" lon="-1.04368">
        <ele>77</ele>
        <time>2019-06-16T08:05:18Z</time>
      </trkpt>
      <trkpt lat="47.21644" lon="-1.04367">
        <ele>76</ele>
        <time>2019-06-16T08:05:26Z</time>
      </trkpt>
      <trkpt lat="47.21622" lon="-1.04357">
        <ele>74</ele>
        <time>2019-06-16T08:05:41Z</time>
      </trkpt>
      <trkpt lat="47.21617" lon="-1.04354">
        <ele>72</ele>
        <time>2019-06-16T08:05:45Z</time>
      </trkpt>
      <trkpt lat="47.21608" lon="-1.04346">
        <ele>69</ele>
        <time>2019-06-16T08:05:52Z</time>
      </trkpt>
      <trkpt lat="47.21606" lon="-1.04338">
        <ele>70</ele>
        <time>2019-06-16T08:05:58Z</time>
      </trkpt>
      <trkpt lat="47.21621" lon="-1.0426">
        <ele>73</ele>
        <time>2019-06-16T08:06:38Z</time>
      </trkpt>
      <trkpt lat="47.21625" lon="-1.04252">
        <ele>73</ele>
        <time>2019-06-16T08:06:43Z</time>
      </trkpt>
      <trkpt lat="47.21626" lon="-1.04244">
        <ele>73</ele>
        <time>2019-06-16T08:06:47Z</time>
      </trkpt>
      <trkpt lat="47.21631" lon="-1.04226">
        <ele>73</ele>
        <time>2019-06-16T08:06:57Z</time>
      </trkpt>
      <trkpt lat="47.21636" lon="-1.04212">
        <ele>72</ele>
        <time>2019-06-16T08:07:06Z</time>
      </trkpt>
      <trkpt lat="47.2164" lon="-1.0418">
        <ele>67</ele>
        <time>2019-06-16T08:07:22Z</time>
      </trkpt>
      <trkpt lat="47.2165" lon="-1.04118">
        <ele>68</ele>
        <time>2019-06-16T08:07:56Z</time>
      </trkpt>
      <trkpt lat="47.2165" lon="-1.04096">
        <ele>69</ele>
        <time>2019-06-16T08:08:07Z</time>
      </trkpt>
      <trkpt lat="47.21652" lon="-1.04088">
        <ele>68</ele>
        <time>2019-06-16T08:08:13Z</time>
      </trkpt>
      <trkpt lat="47.21652" lon="-1.04081">
        <ele>68</ele>
        <time>2019-06-16T08:08:18Z</time>
      </trkpt>
      <trkpt lat="47.21655" lon="-1.04056">
        <ele>64</ele>
        <time>2019-06-16T08:08:36Z</time>
      </trkpt>
      <trkpt lat="47.21654" lon="-1.0405">
        <ele>63</ele>
        <time>2019-06-16T08:08:41Z</time>
      </trkpt>
      <trkpt lat="47.21654" lon="-1.04044">
        <ele>61</ele>
        <time>2019-06-16T08:08:45Z</time>
      </trkpt>
      <trkpt lat="47.21654" lon="-1.0401">
        <ele>55</ele>
        <time>2019-06-16T08:09:02Z</time>
      </trkpt>
      <trkpt lat="47.2166" lon="-1.04001">
        <ele>54</ele>
        <time>2019-06-16T08:09:10Z</time>
      </trkpt>
      <trkpt lat="47.21663" lon="-1.03987">
        <ele>51</ele>
        <time>2019-06-16T08:09:18Z</time>
      </trkpt>
      <trkpt lat="47.21664" lon="-1.03979">
        <ele>52</ele>
        <time>2019-06-16T08:09:20Z</time>
      </trkpt>
      <trkpt lat="47.21665" lon="-1.03973">
        <ele>53</ele>
        <time>2019-06-16T08:09:22Z</time>
      </trkpt>
      <trkpt lat="47.21668" lon="-1.03969">
        <ele>52</ele>
        <time>2019-06-16T08:09:27Z</time>
      </trkpt>
      <trkpt lat="47.21677" lon="-1.03967">
        <ele>51</ele>
        <time>2019-06-16T08:09:35Z</time>
      </trkpt>
      <trkpt lat="47.21689" lon="-1.03963">
        <ele>51</ele>
        <time>2019-06-16T08:09:43Z</time>
      </trkpt>
      <trkpt lat="47.21706" lon="-1.03954">
        <ele>49</ele>
        <time>2019-06-16T08:09:59Z</time>
      </trkpt>
      <trkpt lat="47.21717" lon="-1.03954">
        <ele>50</ele>
        <time>2019-06-16T08:10:14Z</time>
      </trkpt>
      <trkpt lat="47.21731" lon="-1.0395">
        <ele>53</ele>
        <time>2019-06-16T08:10:34Z</time>
      </trkpt>
      <trkpt lat="47.21741" lon="-1.03943">
        <ele>53</ele>
        <time>2019-06-16T08:10:44Z</time>
      </trkpt>
      <trkpt lat="47.21757" lon="-1.03933">
        <ele>51</ele>
        <time>2019-06-16T08:10:54Z</time>
      </trkpt>
      <trkpt lat="47.21766" lon="-1.03925">
        <ele>49</ele>
        <time>2019-06-16T08:11:02Z</time>
      </trkpt>
      <trkpt lat="47.21772" lon="-1.03909">
        <ele>44</ele>
        <time>2019-06-16T08:11:14Z</time>
      </trkpt>
      <trkpt lat="47.21775" lon="-1.03852">
        <ele>43</ele>
        <time>2019-06-16T08:11:45Z</time>
      </trkpt>
      <trkpt lat="47.21774" lon="-1.03832">
        <ele>43</ele>
        <time>2019-06-16T08:11:55Z</time>
      </trkpt>
      <trkpt lat="47.21773" lon="-1.03825">
        <ele>43</ele>
        <time>2019-06-16T08:11:58Z</time>
      </trkpt>
      <trkpt lat="47.2177" lon="-1.03814">
        <ele>43</ele>
        <time>2019-06-16T08:12:05Z</time>
      </trkpt>
      <trkpt lat="47.2177" lon="-1.03806">
        <ele>42</ele>
        <time>2019-06-16T08:12:12Z</time>
      </trkpt>
      <trkpt lat="47.21773" lon="-1.03802">
        <ele>41</ele>
        <time>2019-06-16T08:12:16Z</time>
      </trkpt>
      <trkpt lat="47.21776" lon="-1.03798">
        <ele>42</ele>
        <time>2019-06-16T08:12:20Z</time>
      </trkpt>
      <trkpt lat="47.21791" lon="-1.03785">
        <ele>41</ele>
        <time>2019-06-16T08:12:34Z</time>
      </trkpt>
      <trkpt lat="47.21795" lon="-1.03784">
        <ele>41</ele>
        <time>2019-06-16T08:12:36Z</time>
      </trkpt>
      <trkpt lat="47.21803" lon="-1.03779">
        <ele>41</ele>
        <time>2019-06-16T08:12:47Z</time>
      </trkpt>
      <trkpt lat="47.21838" lon="-1.03751">
        <ele>41</ele>
        <time>2019-06-16T08:13:18Z</time>
      </trkpt>
      <trkpt lat="47.21846" lon="-1.03743">
        <ele>42</ele>
        <time>2019-06-16T08:13:25Z</time>
      </trkpt>
      <trkpt lat="47.21868" lon="-1.03736">
        <ele>42</ele>
        <time>2019-06-16T08:13:44Z</time>
      </trkpt>
      <trkpt lat="47.21887" lon="-1.03728">
        <ele>40</ele>
        <time>2019-06-16T08:14:21Z</time>
      </trkpt>
      <trkpt lat="47.21919" lon="-1.03715">
        <ele>41</ele>
        <time>2019-06-16T08:14:51Z</time>
      </trkpt>
      <trkpt lat="47.21928" lon="-1.0371">
        <ele>43</ele>
        <time>2019-06-16T08:15:03Z</time>
      </trkpt>
      <trkpt lat="47.21929" lon="-1.03709">
        <ele>43</ele>
        <time>2019-06-16T08:15:22Z</time>
      </trkpt>
      <trkpt lat="47.2193" lon="-1.03714">
        <ele>44</ele>
        <time>2019-06-16T08:15:28Z</time>
      </trkpt>
      <trkpt lat="47.21929" lon="-1.0372">
        <ele>44</ele>
        <time>2019-06-16T08:15:31Z</time>
      </trkpt>
      <trkpt lat="47.21928" lon="-1.03723">
        <ele>44</ele>
        <time>2019-06-16T08:15:34Z</time>
      </trkpt>
      <trkpt lat="47.21931" lon="-1.03723">
        <ele>43</ele>
        <time>2019-06-16T08:16:35Z</time>
      </trkpt>
      <trkpt lat="47.21929" lon="-1.03723">
        <ele>39</ele>
        <time>2019-06-16T08:17:24Z</time>
      </trkpt>
      <trkpt lat="47.21929" lon="-1.03734">
        <ele>39</ele>
        <time>2019-06-16T08:21:08Z</time>
      </trkpt>
      <trkpt lat="47.2193" lon="-1.03742">
        <ele>38</ele>
        <time>2019-06-16T08:21:14Z</time>
      </trkpt>
      <trkpt lat="47.21928" lon="-1.03773">
        <ele>39</ele>
        <time>2019-06-16T08:21:34Z</time>
      </trkpt>
      <trkpt lat="47.21925" lon="-1.03785">
        <ele>40</ele>
        <time>2019-06-16T08:21:39Z</time>
      </trkpt>
      <trkpt lat="47.2192" lon="-1.03799">
        <ele>43</ele>
        <time>2019-06-16T08:21:51Z</time>
      </trkpt>
      <trkpt lat="47.21911" lon="-1.03844">
        <ele>46</ele>
        <time>2019-06-16T08:22:22Z</time>
      </trkpt>
      <trkpt lat="47.21909" lon="-1.0386">
        <ele>48</ele>
        <time>2019-06-16T08:22:34Z</time>
      </trkpt>
      <trkpt lat="47.21911" lon="-1.03875">
        <ele>50</ele>
        <time>2019-06-16T08:22:48Z</time>
      </trkpt>
      <trkpt lat="47.21914" lon="-1.03883">
        <ele>50</ele>
        <time>2019-06-16T08:22:54Z</time>
      </trkpt>
      <trkpt lat="47.21916" lon="-1.03893">
        <ele>51</ele>
        <time>2019-06-16T08:23:00Z</time>
      </trkpt>
      <trkpt lat="47.21924" lon="-1.03915">
        <ele>57</ele>
        <time>2019-06-16T08:23:15Z</time>
      </trkpt>
      <trkpt lat="47.21936" lon="-1.03932">
        <ele>59</ele>
        <time>2019-06-16T08:23:35Z</time>
      </trkpt>
      <trkpt lat="47.21943" lon="-1.03936">
        <ele>60</ele>
        <time>2019-06-16T08:23:43Z</time>
      </trkpt>
      <trkpt lat="47.21971" lon="-1.03966">
        <ele>65</ele>
        <time>2019-06-16T08:24:16Z</time>
      </trkpt>
      <trkpt lat="47.21962" lon="-1.0395">
        <ele>68</ele>
        <time>2019-06-16T08:24:36Z</time>
      </trkpt>
      <trkpt lat="47.21958" lon="-1.03947">
        <ele>67</ele>
        <time>2019-06-16T08:24:39Z</time>
      </trkpt>
      <trkpt lat="47.2193" lon="-1.03913">
        <ele>64</ele>
        <time>2019-06-16T08:25:11Z</time>
      </trkpt>
      <trkpt lat="47.21918" lon="-1.0388">
        <ele>63</ele>
        <time>2019-06-16T08:25:33Z</time>
      </trkpt>
      <trkpt lat="47.21916" lon="-1.03865">
        <ele>62</ele>
        <time>2019-06-16T08:25:43Z</time>
      </trkpt>
      <trkpt lat="47.21917" lon="-1.03856">
        <ele>62</ele>
        <time>2019-06-16T08:25:50Z</time>
      </trkpt>
      <trkpt lat="47.2192" lon="-1.03843">
        <ele>61</ele>
        <time>2019-06-16T08:25:59Z</time>
      </trkpt>
      <trkpt lat="47.21924" lon="-1.0383">
        <ele>59</ele>
        <time>2019-06-16T08:26:09Z</time>
      </trkpt>
      <trkpt lat="47.21925" lon="-1.03824">
        <ele>56</ele>
        <time>2019-06-16T08:26:19Z</time>
      </trkpt>
      <trkpt lat="47.21929" lon="-1.03804">
        <ele>55</ele>
        <time>2019-06-16T08:26:29Z</time>
      </trkpt>
      <trkpt lat="47.21937" lon="-1.03788">
        <ele>54</ele>
        <time>2019-06-16T08:26:39Z</time>
      </trkpt>
      <trkpt lat="47.21943" lon="-1.03782">
        <ele>53</ele>
        <time>2019-06-16T08:26:45Z</time>
      </trkpt>
      <trkpt lat="47.21947" lon="-1.03778">
        <ele>53</ele>
        <time>2019-06-16T08:26:49Z</time>
      </trkpt>
      <trkpt lat="47.21956" lon="-1.03768">
        <ele>53</ele>
        <time>2019-06-16T08:27:01Z</time>
      </trkpt>
      <trkpt lat="47.21958" lon="-1.03762">
        <ele>52</ele>
        <time>2019-06-16T08:27:05Z</time>
      </trkpt>
      <trkpt lat="47.21961" lon="-1.03756">
        <ele>52</ele>
        <time>2019-06-16T08:27:08Z</time>
      </trkpt>
      <trkpt lat="47.2197" lon="-1.03727">
        <ele>53</ele>
        <time>2019-06-16T08:27:27Z</time>
      </trkpt>
      <trkpt lat="47.21974" lon="-1.03699">
        <ele>51</ele>
        <time>2019-06-16T08:27:42Z</time>
      </trkpt>
      <trkpt lat="47.21976" lon="-1.03686">
        <ele>50</ele>
        <time>2019-06-16T08:27:55Z</time>
      </trkpt>
      <trkpt lat="47.21975" lon="-1.03681">
        <ele>50</ele>
        <time>2019-06-16T08:27:59Z</time>
      </trkpt>
      <trkpt lat="47.21974" lon="-1.03676">
        <ele>49</ele>
        <time>2019-06-16T08:28:08Z</time>
      </trkpt>
      <trkpt lat="47.21966" lon="-1.03652">
        <ele>47</ele>
        <time>2019-06-16T08:28:34Z</time>
      </trkpt>
      <trkpt lat="47.21968" lon="-1.03634">
        <ele>49</ele>
        <time>2019-06-16T08:28:45Z</time>
      </trkpt>
      <trkpt lat="47.21967" lon="-1.03627">
        <ele>50</ele>
        <time>2019-06-16T08:28:48Z</time>
      </trkpt>
      <trkpt lat="47.21966" lon="-1.03618">
        <ele>51</ele>
        <time>2019-06-16T08:28:53Z</time>
      </trkpt>
      <trkpt lat="47.21967" lon="-1.03603">
        <ele>53</ele>
        <time>2019-06-16T08:29:03Z</time>
      </trkpt>
      <trkpt lat="47.21959" lon="-1.0358">
        <ele>56</ele>
        <time>2019-06-16T08:29:23Z</time>
      </trkpt>
      <trkpt lat="47.21961" lon="-1.03553">
        <ele>43</ele>
        <time>2019-06-16T08:29:54Z</time>
      </trkpt>
      <trkpt lat="47.21961" lon="-1.0354">
        <ele>41</ele>
        <time>2019-06-16T08:30:02Z</time>
      </trkpt>
      <trkpt lat="47.21961" lon="-1.03526">
        <ele>38</ele>
        <time>2019-06-16T08:30:10Z</time>
      </trkpt>
      <trkpt lat="47.2196" lon="-1.03509">
        <ele>34</ele>
        <time>2019-06-16T08:30:21Z</time>
      </trkpt>
      <trkpt lat="47.2196" lon="-1.03494">
        <ele>32</ele>
        <time>2019-06-16T08:30:30Z</time>
      </trkpt>
      <trkpt lat="47.21958" lon="-1.03477">
        <ele>31</ele>
        <time>2019-06-16T08:30:41Z</time>
      </trkpt>
      <trkpt lat="47.21955" lon="-1.03459">
        <ele>33</ele>
        <time>2019-06-16T08:30:50Z</time>
      </trkpt>
      <trkpt lat="47.21951" lon="-1.03446">
        <ele>37</ele>
        <time>2019-06-16T08:30:55Z</time>
      </trkpt>
      <trkpt lat="47.21951" lon="-1.0344">
        <ele>39</ele>
        <time>2019-06-16T08:30:59Z</time>
      </trkpt>
      <trkpt lat="47.21952" lon="-1.03435">
        <ele>39</ele>
        <time>2019-06-16T08:31:07Z</time>
      </trkpt>
      <trkpt lat="47.21957" lon="-1.0343">
        <ele>39</ele>
        <time>2019-06-16T08:31:14Z</time>
      </trkpt>
      <trkpt lat="47.2196" lon="-1.03422">
        <ele>40</ele>
        <time>2019-06-16T08:31:19Z</time>
      </trkpt>
      <trkpt lat="47.2196" lon="-1.03412">
        <ele>41</ele>
        <time>2019-06-16T08:31:26Z</time>
      </trkpt>
      <trkpt lat="47.2196" lon="-1.03405">
        <ele>44</ele>
        <time>2019-06-16T08:31:29Z</time>
      </trkpt>
      <trkpt lat="47.21958" lon="-1.0338">
        <ele>47</ele>
        <time>2019-06-16T08:31:44Z</time>
      </trkpt>
      <trkpt lat="47.21957" lon="-1.03373">
        <ele>47</ele>
        <time>2019-06-16T08:31:48Z</time>
      </trkpt>
      <trkpt lat="47.21954" lon="-1.03366">
        <ele>46</ele>
        <time>2019-06-16T08:31:53Z</time>
      </trkpt>
      <trkpt lat="47.21957" lon="-1.03339">
        <ele>44</ele>
        <time>2019-06-16T08:32:06Z</time>
      </trkpt>
      <trkpt lat="47.21957" lon="-1.03322">
        <ele>45</ele>
        <time>2019-06-16T08:32:14Z</time>
      </trkpt>
      <trkpt lat="47.21955" lon="-1.03275">
        <ele>46</ele>
        <time>2019-06-16T08:32:38Z</time>
      </trkpt>
      <trkpt lat="47.21957" lon="-1.03267">
        <ele>45</ele>
        <time>2019-06-16T08:32:44Z</time>
      </trkpt>
      <trkpt lat="47.21956" lon="-1.0326">
        <ele>45</ele>
        <time>2019-06-16T08:32:48Z</time>
      </trkpt>
      <trkpt lat="47.21955" lon="-1.0322">
        <ele>42</ele>
        <time>2019-06-16T08:33:09Z</time>
      </trkpt>
      <trkpt lat="47.21956" lon="-1.03208">
        <ele>38</ele>
        <time>2019-06-16T08:33:18Z</time>
      </trkpt>
      <trkpt lat="47.21956" lon="-1.03201">
        <ele>38</ele>
        <time>2019-06-16T08:33:22Z</time>
      </trkpt>
      <trkpt lat="47.21956" lon="-1.03194">
        <ele>36</ele>
        <time>2019-06-16T08:33:27Z</time>
      </trkpt>
      <trkpt lat="47.21953" lon="-1.03175">
        <ele>36</ele>
        <time>2019-06-16T08:33:38Z</time>
      </trkpt>
      <trkpt lat="47.21953" lon="-1.03171">
        <ele>37</ele>
        <time>2019-06-16T08:33:40Z</time>
      </trkpt>
      <trkpt lat="47.21938" lon="-1.03105">
        <ele>40</ele>
        <time>2019-06-16T08:34:17Z</time>
      </trkpt>
      <trkpt lat="47.21936" lon="-1.03095">
        <ele>41</ele>
        <time>2019-06-16T08:34:23Z</time>
      </trkpt>
      <trkpt lat="47.21934" lon="-1.03089">
        <ele>41</ele>
        <time>2019-06-16T08:34:27Z</time>
      </trkpt>
      <trkpt lat="47.21932" lon="-1.03059">
        <ele>41</ele>
        <time>2019-06-16T08:34:45Z</time>
      </trkpt>
      <trkpt lat="47.21925" lon="-1.03035">
        <ele>41</ele>
        <time>2019-06-16T08:35:00Z</time>
      </trkpt>
      <trkpt lat="47.21922" lon="-1.03022">
        <ele>40</ele>
        <time>2019-06-16T08:35:09Z</time>
      </trkpt>
      <trkpt lat="47.21919" lon="-1.03011">
        <ele>40</ele>
        <time>2019-06-16T08:35:16Z</time>
      </trkpt>
      <trkpt lat="47.21918" lon="-1.03004">
        <ele>40</ele>
        <time>2019-06-16T08:35:20Z</time>
      </trkpt>
      <trkpt lat="47.21917" lon="-1.02998">
        <ele>39</ele>
        <time>2019-06-16T08:35:24Z</time>
      </trkpt>
      <trkpt lat="47.21925" lon="-1.02998">
        <ele>38</ele>
        <time>2019-06-16T08:35:31Z</time>
      </trkpt>
      <trkpt lat="47.21928" lon="-1.03002">
        <ele>36</ele>
        <time>2019-06-16T08:35:40Z</time>
      </trkpt>
      <trkpt lat="47.21949" lon="-1.03054">
        <ele>36</ele>
        <time>2019-06-16T08:36:11Z</time>
      </trkpt>
      <trkpt lat="47.21956" lon="-1.03064">
        <ele>35</ele>
        <time>2019-06-16T08:36:22Z</time>
      </trkpt>
      <trkpt lat="47.21967" lon="-1.03115">
        <ele>37</ele>
        <time>2019-06-16T08:36:49Z</time>
      </trkpt>
      <trkpt lat="47.21967" lon="-1.03134">
        <ele>39</ele>
        <time>2019-06-16T08:36:59Z</time>
      </trkpt>
      <trkpt lat="47.2197" lon="-1.03142">
        <ele>41</ele>
        <time>2019-06-16T08:37:03Z</time>
      </trkpt>
      <trkpt lat="47.21981" lon="-1.03196">
        <ele>47</ele>
        <time>2019-06-16T08:37:35Z</time>
      </trkpt>
      <trkpt lat="47.21982" lon="-1.0322">
        <ele>46</ele>
        <time>2019-06-16T08:37:55Z</time>
      </trkpt>
      <trkpt lat="47.21985" lon="-1.03224">
        <ele>47</ele>
        <time>2019-06-16T08:37:59Z</time>
      </trkpt>
      <trkpt lat="47.21988" lon="-1.03228">
        <ele>48</ele>
        <time>2019-06-16T08:38:03Z</time>
      </trkpt>
      <trkpt lat="47.22003" lon="-1.03245">
        <ele>52</ele>
        <time>2019-06-16T08:38:35Z</time>
      </trkpt>
      <trkpt lat="47.22014" lon="-1.0326">
        <ele>55</ele>
        <time>2019-06-16T08:38:55Z</time>
      </trkpt>
      <trkpt lat="47.22016" lon="-1.03268">
        <ele>56</ele>
        <time>2019-06-16T08:39:02Z</time>
      </trkpt>
      <trkpt lat="47.2202" lon="-1.03287">
        <ele>59</ele>
        <time>2019-06-16T08:39:15Z</time>
      </trkpt>
      <trkpt lat="47.22021" lon="-1.03298">
        <ele>58</ele>
        <time>2019-06-16T08:39:22Z</time>
      </trkpt>
      <trkpt lat="47.22023" lon="-1.03301">
        <ele>59</ele>
        <time>2019-06-16T08:39:26Z</time>
      </trkpt>
      <trkpt lat="47.22025" lon="-1.03306">
        <ele>60</ele>
        <time>2019-06-16T08:39:31Z</time>
      </trkpt>
      <trkpt lat="47.22024" lon="-1.03311">
        <ele>60</ele>
        <time>2019-06-16T08:39:35Z</time>
      </trkpt>
      <trkpt lat="47.22026" lon="-1.03316">
        <ele>60</ele>
        <time>2019-06-16T08:39:40Z</time>
      </trkpt>
      <trkpt lat="47.22028" lon="-1.03326">
        <ele>60</ele>
        <time>2019-06-16T08:39:48Z</time>
      </trkpt>
      <trkpt lat="47.22029" lon="-1.03333">
        <ele>62</ele>
        <time>2019-06-16T08:39:54Z</time>
      </trkpt>
      <trkpt lat="47.22033" lon="-1.03338">
        <ele>63</ele>
        <time>2019-06-16T08:40:00Z</time>
      </trkpt>
      <trkpt lat="47.22035" lon="-1.03341">
        <ele>63</ele>
        <time>2019-06-16T08:40:04Z</time>
      </trkpt>
      <trkpt lat="47.22041" lon="-1.0335">
        <ele>66</ele>
        <time>2019-06-16T08:40:21Z</time>
      </trkpt>
      <trkpt lat="47.22047" lon="-1.03352">
        <ele>66</ele>
        <time>2019-06-16T08:40:29Z</time>
      </trkpt>
      <trkpt lat="47.22051" lon="-1.03352">
        <ele>67</ele>
        <time>2019-06-16T08:40:33Z</time>
      </trkpt>
      <trkpt lat="47.22061" lon="-1.03362">
        <ele>69</ele>
        <time>2019-06-16T08:40:43Z</time>
      </trkpt>
      <trkpt lat="47.22066" lon="-1.03371">
        <ele>70</ele>
        <time>2019-06-16T08:40:50Z</time>
      </trkpt>
      <trkpt lat="47.22068" lon="-1.03379">
        <ele>71</ele>
        <time>2019-06-16T08:40:55Z</time>
      </trkpt>
      <trkpt lat="47.22078" lon="-1.03395">
        <ele>71</ele>
        <time>2019-06-16T08:41:07Z</time>
      </trkpt>
      <trkpt lat="47.22087" lon="-1.03415">
        <ele>76</ele>
        <time>2019-06-16T08:41:23Z</time>
      </trkpt>
      <trkpt lat="47.22086" lon="-1.03426">
        <ele>76</ele>
        <time>2019-06-16T08:41:30Z</time>
      </trkpt>
      <trkpt lat="47.22088" lon="-1.03433">
        <ele>76</ele>
        <time>2019-06-16T08:41:34Z</time>
      </trkpt>
      <trkpt lat="47.22089" lon="-1.03437">
        <ele>76</ele>
        <time>2019-06-16T08:41:37Z</time>
      </trkpt>
      <trkpt lat="47.22091" lon="-1.03441">
        <ele>76</ele>
        <time>2019-06-16T08:41:41Z</time>
      </trkpt>
      <trkpt lat="47.22093" lon="-1.03448">
        <ele>76</ele>
        <time>2019-06-16T08:41:45Z</time>
      </trkpt>
      <trkpt lat="47.22093" lon="-1.0346">
        <ele>76</ele>
        <time>2019-06-16T08:41:54Z</time>
      </trkpt>
      <trkpt lat="47.22095" lon="-1.03469">
        <ele>76</ele>
        <time>2019-06-16T08:42:00Z</time>
      </trkpt>
      <trkpt lat="47.22098" lon="-1.03496">
        <ele>74</ele>
        <time>2019-06-16T08:42:14Z</time>
      </trkpt>
      <trkpt lat="47.221" lon="-1.03513">
        <ele>74</ele>
        <time>2019-06-16T08:42:23Z</time>
      </trkpt>
      <trkpt lat="47.22105" lon="-1.03537">
        <ele>76</ele>
        <time>2019-06-16T08:42:38Z</time>
      </trkpt>
      <trkpt lat="47.22106" lon="-1.03543">
        <ele>76</ele>
        <time>2019-06-16T08:42:41Z</time>
      </trkpt>
      <trkpt lat="47.22107" lon="-1.03549">
        <ele>76</ele>
        <time>2019-06-16T08:42:43Z</time>
      </trkpt>
      <trkpt lat="47.22109" lon="-1.03581">
        <ele>79</ele>
        <time>2019-06-16T08:42:56Z</time>
      </trkpt>
      <trkpt lat="47.22112" lon="-1.03592">
        <ele>79</ele>
        <time>2019-06-16T08:43:02Z</time>
      </trkpt>
      <trkpt lat="47.22123" lon="-1.03605">
        <ele>80</ele>
        <time>2019-06-16T08:43:22Z</time>
      </trkpt>
      <trkpt lat="47.22153" lon="-1.03627">
        <ele>81</ele>
        <time>2019-06-16T08:43:54Z</time>
      </trkpt>
      <trkpt lat="47.22156" lon="-1.0363">
        <ele>80</ele>
        <time>2019-06-16T08:43:58Z</time>
      </trkpt>
      <trkpt lat="47.22165" lon="-1.03633">
        <ele>80</ele>
        <time>2019-06-16T08:44:05Z</time>
      </trkpt>
      <trkpt lat="47.22177" lon="-1.03627">
        <ele>80</ele>
        <time>2019-06-16T08:44:17Z</time>
      </trkpt>
      <trkpt lat="47.22207" lon="-1.03612">
        <ele>83</ele>
        <time>2019-06-16T08:44:45Z</time>
      </trkpt>
      <trkpt lat="47.22242" lon="-1.03602">
        <ele>84</ele>
        <time>2019-06-16T08:45:15Z</time>
      </trkpt>
      <trkpt lat="47.22248" lon="-1.03601">
        <ele>84</ele>
        <time>2019-06-16T08:45:27Z</time>
      </trkpt>
      <trkpt lat="47.22274" lon="-1.03596">
        <ele>84</ele>
        <time>2019-06-16T08:45:48Z</time>
      </trkpt>
      <trkpt lat="47.22311" lon="-1.03586">
        <ele>83</ele>
        <time>2019-06-16T08:46:19Z</time>
      </trkpt>
      <trkpt lat="47.22354" lon="-1.03579">
        <ele>79</ele>
        <time>2019-06-16T08:46:48Z</time>
      </trkpt>
      <trkpt lat="47.22368" lon="-1.0358">
        <ele>80</ele>
        <time>2019-06-16T08:46:59Z</time>
      </trkpt>
      <trkpt lat="47.22378" lon="-1.03585">
        <ele>81</ele>
        <time>2019-06-16T08:47:08Z</time>
      </trkpt>
      <trkpt lat="47.22384" lon="-1.0359">
        <ele>82</ele>
        <time>2019-06-16T08:47:22Z</time>
      </trkpt>
      <trkpt lat="47.22386" lon="-1.03595">
        <ele>83</ele>
        <time>2019-06-16T08:47:27Z</time>
      </trkpt>
      <trkpt lat="47.22391" lon="-1.03611">
        <ele>84</ele>
        <time>2019-06-16T08:47:40Z</time>
      </trkpt>
      <trkpt lat="47.22391" lon="-1.03616">
        <ele>84</ele>
        <time>2019-06-16T08:47:44Z</time>
      </trkpt>
      <trkpt lat="47.22392" lon="-1.03623">
        <ele>84</ele>
        <time>2019-06-16T08:47:48Z</time>
      </trkpt>
      <trkpt lat="47.22393" lon="-1.03632">
        <ele>84</ele>
        <time>2019-06-16T08:47:53Z</time>
      </trkpt>
      <trkpt lat="47.22393" lon="-1.03645">
        <ele>83</ele>
        <time>2019-06-16T08:48:03Z</time>
      </trkpt>
      <trkpt lat="47.22394" lon="-1.03673">
        <ele>81</ele>
        <time>2019-06-16T08:48:17Z</time>
      </trkpt>
      <trkpt lat="47.22396" lon="-1.03685">
        <ele>83</ele>
        <time>2019-06-16T08:48:25Z</time>
      </trkpt>
      <trkpt lat="47.22399" lon="-1.03699">
        <ele>85</ele>
        <time>2019-06-16T08:48:42Z</time>
      </trkpt>
      <trkpt lat="47.224" lon="-1.03707">
        <ele>85</ele>
        <time>2019-06-16T08:48:46Z</time>
      </trkpt>
      <trkpt lat="47.22403" lon="-1.03725">
        <ele>86</ele>
        <time>2019-06-16T08:48:57Z</time>
      </trkpt>
      <trkpt lat="47.22407" lon="-1.03741">
        <ele>87</ele>
        <time>2019-06-16T08:49:07Z</time>
      </trkpt>
      <trkpt lat="47.22409" lon="-1.03761">
        <ele>89</ele>
        <time>2019-06-16T08:49:17Z</time>
      </trkpt>
      <trkpt lat="47.22408" lon="-1.03767">
        <ele>89</ele>
        <time>2019-06-16T08:49:20Z</time>
      </trkpt>
      <trkpt lat="47.22407" lon="-1.03774">
        <ele>89</ele>
        <time>2019-06-16T08:49:23Z</time>
      </trkpt>
      <trkpt lat="47.224" lon="-1.03792">
        <ele>92</ele>
        <time>2019-06-16T08:49:32Z</time>
      </trkpt>
      <trkpt lat="47.22385" lon="-1.03815">
        <ele>93</ele>
        <time>2019-06-16T08:49:47Z</time>
      </trkpt>
      <trkpt lat="47.2238" lon="-1.03818">
        <ele>94</ele>
        <time>2019-06-16T08:49:51Z</time>
      </trkpt>
      <trkpt lat="47.22354" lon="-1.03844">
        <ele>96</ele>
        <time>2019-06-16T08:50:18Z</time>
      </trkpt>
      <trkpt lat="47.2235" lon="-1.03857">
        <ele>97</ele>
        <time>2019-06-16T08:50:27Z</time>
      </trkpt>
      <trkpt lat="47.22354" lon="-1.03867">
        <ele>96</ele>
        <time>2019-06-16T08:50:35Z</time>
      </trkpt>
      <trkpt lat="47.22365" lon="-1.03907">
        <ele>94</ele>
        <time>2019-06-16T08:50:57Z</time>
      </trkpt>
      <trkpt lat="47.22372" lon="-1.03943">
        <ele>94</ele>
        <time>2019-06-16T08:51:16Z</time>
      </trkpt>
      <trkpt lat="47.22374" lon="-1.03949">
        <ele>94</ele>
        <time>2019-06-16T08:51:20Z</time>
      </trkpt>
      <trkpt lat="47.22375" lon="-1.03954">
        <ele>92</ele>
        <time>2019-06-16T08:51:24Z</time>
      </trkpt>
      <trkpt lat="47.22376" lon="-1.0396">
        <ele>92</ele>
        <time>2019-06-16T08:51:27Z</time>
      </trkpt>
      <trkpt lat="47.22382" lon="-1.03969">
        <ele>92</ele>
        <time>2019-06-16T08:51:36Z</time>
      </trkpt>
      <trkpt lat="47.22381" lon="-1.03982">
        <ele>92</ele>
        <time>2019-06-16T08:51:43Z</time>
      </trkpt>
      <trkpt lat="47.22362" lon="-1.04038">
        <ele>98</ele>
        <time>2019-06-16T08:52:16Z</time>
      </trkpt>
      <trkpt lat="47.2236" lon="-1.0405">
        <ele>98</ele>
        <time>2019-06-16T08:52:23Z</time>
      </trkpt>
      <trkpt lat="47.22361" lon="-1.04072">
        <ele>98</ele>
        <time>2019-06-16T08:52:36Z</time>
      </trkpt>
      <trkpt lat="47.22364" lon="-1.04075">
        <ele>97</ele>
        <time>2019-06-16T08:52:41Z</time>
      </trkpt>
      <trkpt lat="47.22367" lon="-1.04078">
        <ele>97</ele>
        <time>2019-06-16T08:52:45Z</time>
      </trkpt>
      <trkpt lat="47.22371" lon="-1.04096">
        <ele>95</ele>
        <time>2019-06-16T08:52:56Z</time>
      </trkpt>
      <trkpt lat="47.22372" lon="-1.04108">
        <ele>94</ele>
        <time>2019-06-16T08:53:03Z</time>
      </trkpt>
      <trkpt lat="47.22373" lon="-1.04113">
        <ele>93</ele>
        <time>2019-06-16T08:53:06Z</time>
      </trkpt>
      <trkpt lat="47.22367" lon="-1.04132">
        <ele>93</ele>
        <time>2019-06-16T08:53:16Z</time>
      </trkpt>
      <trkpt lat="47.22365" lon="-1.04137">
        <ele>93</ele>
        <time>2019-06-16T08:53:19Z</time>
      </trkpt>
      <trkpt lat="47.22354" lon="-1.04146">
        <ele>95</ele>
        <time>2019-06-16T08:53:28Z</time>
      </trkpt>
      <trkpt lat="47.22347" lon="-1.04145">
        <ele>97</ele>
        <time>2019-06-16T08:53:36Z</time>
      </trkpt>
      <trkpt lat="47.22328" lon="-1.04153">
        <ele>102</ele>
        <time>2019-06-16T08:53:56Z</time>
      </trkpt>
      <trkpt lat="47.22325" lon="-1.04167">
        <ele>100</ele>
        <time>2019-06-16T08:54:04Z</time>
      </trkpt>
      <trkpt lat="47.22328" lon="-1.04183">
        <ele>99</ele>
        <time>2019-06-16T08:54:11Z</time>
      </trkpt>
      <trkpt lat="47.22336" lon="-1.04199">
        <ele>99</ele>
        <time>2019-06-16T08:54:23Z</time>
      </trkpt>
      <trkpt lat="47.22345" lon="-1.04224">
        <ele>99</ele>
        <time>2019-06-16T08:54:38Z</time>
      </trkpt>
      <trkpt lat="47.22363" lon="-1.04276">
        <ele>95</ele>
        <time>2019-06-16T08:55:10Z</time>
      </trkpt>
      <trkpt lat="47.22374" lon="-1.04321">
        <ele>92</ele>
        <time>2019-06-16T08:55:41Z</time>
      </trkpt>
      <trkpt lat="47.22376" lon="-1.04336">
        <ele>93</ele>
        <time>2019-06-16T08:55:52Z</time>
      </trkpt>
      <trkpt lat="47.2238" lon="-1.04363">
        <ele>92</ele>
        <time>2019-06-16T08:56:05Z</time>
      </trkpt>
      <trkpt lat="47.22387" lon="-1.04404">
        <ele>91</ele>
        <time>2019-06-16T08:56:30Z</time>
      </trkpt>
      <trkpt lat="47.22395" lon="-1.04457">
        <ele>93</ele>
        <time>2019-06-16T08:57:04Z</time>
      </trkpt>
      <trkpt lat="47.22399" lon="-1.04479">
        <ele>93</ele>
        <time>2019-06-16T08:57:19Z</time>
      </trkpt>
      <trkpt lat="47.22404" lon="-1.04515">
        <ele>88</ele>
        <time>2019-06-16T08:57:34Z</time>
      </trkpt>
      <trkpt lat="47.22405" lon="-1.04526">
        <ele>88</ele>
        <time>2019-06-16T08:57:39Z</time>
      </trkpt>
      <trkpt lat="47.22407" lon="-1.04536">
        <ele>90</ele>
        <time>2019-06-16T08:57:44Z</time>
      </trkpt>
      <trkpt lat="47.22417" lon="-1.04588">
        <ele>93</ele>
        <time>2019-06-16T08:58:15Z</time>
      </trkpt>
      <trkpt lat="47.22418" lon="-1.04593">
        <ele>93</ele>
        <time>2019-06-16T08:58:18Z</time>
      </trkpt>
      <trkpt lat="47.22419" lon="-1.04608">
        <ele>94</ele>
        <time>2019-06-16T08:58:25Z</time>
      </trkpt>
      <trkpt lat="47.22421" lon="-1.04617">
        <ele>94</ele>
        <time>2019-06-16T08:58:29Z</time>
      </trkpt>
      <trkpt lat="47.22421" lon="-1.04625">
        <ele>95</ele>
        <time>2019-06-16T08:58:33Z</time>
      </trkpt>
      <trkpt lat="47.22424" lon="-1.04638">
        <ele>96</ele>
        <time>2019-06-16T08:58:49Z</time>
      </trkpt>
      <trkpt lat="47.22428" lon="-1.04666">
        <ele>92</ele>
        <time>2019-06-16T08:59:07Z</time>
      </trkpt>
      <trkpt lat="47.22429" lon="-1.04679">
        <ele>89</ele>
        <time>2019-06-16T08:59:18Z</time>
      </trkpt>
      <trkpt lat="47.22425" lon="-1.04697">
        <ele>86</ele>
        <time>2019-06-16T08:59:30Z</time>
      </trkpt>
      <trkpt lat="47.22418" lon="-1.04715">
        <ele>88</ele>
        <time>2019-06-16T08:59:36Z</time>
      </trkpt>
      <trkpt lat="47.22408" lon="-1.04727">
        <ele>91</ele>
        <time>2019-06-16T08:59:45Z</time>
      </trkpt>
      <trkpt lat="47.22395" lon="-1.04738">
        <ele>94</ele>
        <time>2019-06-16T08:59:56Z</time>
      </trkpt>
      <trkpt lat="47.22387" lon="-1.04747">
        <ele>95</ele>
        <time>2019-06-16T09:00:03Z</time>
      </trkpt>
      <trkpt lat="47.22367" lon="-1.04759">
        <ele>99</ele>
        <time>2019-06-16T09:00:16Z</time>
      </trkpt>
      <trkpt lat="47.22352" lon="-1.04771">
        <ele>101</ele>
        <time>2019-06-16T09:00:35Z</time>
      </trkpt>
      <trkpt lat="47.22343" lon="-1.04776">
        <ele>100</ele>
        <time>2019-06-16T09:00:43Z</time>
      </trkpt>
      <trkpt lat="47.22295" lon="-1.04797">
        <ele>103</ele>
        <time>2019-06-16T09:01:15Z</time>
      </trkpt>
      <trkpt lat="47.2229" lon="-1.04799">
        <ele>102</ele>
        <time>2019-06-16T09:01:19Z</time>
      </trkpt>
      <trkpt lat="47.2228" lon="-1.04785">
        <ele>101</ele>
        <time>2019-06-16T09:01:30Z</time>
      </trkpt>
      <trkpt lat="47.22275" lon="-1.04766">
        <ele>100</ele>
        <time>2019-06-16T09:01:43Z</time>
      </trkpt>
      <trkpt lat="47.22276" lon="-1.04752">
        <ele>103</ele>
        <time>2019-06-16T09:01:55Z</time>
      </trkpt>
      <trkpt lat="47.22279" lon="-1.04745">
        <ele>102</ele>
        <time>2019-06-16T09:02:04Z</time>
      </trkpt>
      <trkpt lat="47.22285" lon="-1.04732">
        <ele>101</ele>
        <time>2019-06-16T09:02:15Z</time>
      </trkpt>
      <trkpt lat="47.2229" lon="-1.04723">
        <ele>98</ele>
        <time>2019-06-16T09:02:26Z</time>
      </trkpt>
    </trkseg>
  </trk>
</gpx>